Portada
METAR-TAF:

METAR-TAF

Aeropuertos :

Bou Saâda, Argelia

latitud: 35-20N, longitud: 004-12E, altitud: 461 m

Observación

El informe se hizo hace 10 horas y 39 minutos, a las 18:00 UTC
Viento 17 kt del norte
Temperatura 16°C
Humedad 36%
Presión 1025 hPa
Visibilidad 10 km o más
Escasas nubes a una altura de 2600 ft
Nubes dispersas a una altura de 20000 ft

METAR: DAAD 201800Z 35017KT 9999 FEW026 SCT200 16/01 Q1025

Hora: 05:39 (04:39 UTC)

Pronóstico

El informe se hizo hace 11 horas y 39 minutos, a las 17:00 UTC
Pronóstico válido del 20 a las 18 UTC al 21 a las 03 UTC
Viento 16 kt del norte-noroeste
Visibilidad 10 km o más
Escasas nubes a una altura de 2600 ft
Nubes dispersas a una altura de 20000 ft

TAF: DAAD 201700Z 2018/2103 34016KT 9999 FEW026 SCT200

Observaciones y pronósticos meteorológicos de más de 4000 aeropuertos (mensajes METAR y TAF).

Los puntos amarillos y rojos representan las estaciones disponibles.

Ponga el ratón en el punto deseado para ver el nombre de la estación.

Haga clic para ver las observaciones y los pronósticos meteorológicos.

Para cambiar el mapa : haga clic en los botones verdes con una cruz de color negro para hacer un zoom, en el botón verde con un guión para alejar o en las flechas verdes para mapas adyacentes.


METAR-TAF: